Time;durP1;ratioP1;P1;durP2;ratioP2;P2;SDS_P1;SDS_P2;PMS_P1;PMS_P2;Temp;Humidity;BMP_temperature;BMP_pressure;BME280_temperature;BME280_humidity;BME280_pressure;Samples;Min_cycle;Max_cycle;Signal;HPM_P1;HPM_P2
2022/04/09 00:00:36;;;;;;;17.67;4.50;;;;;;;4.52;81.73;100223.22;7387831;19;20034;-58
2022/04/09 00:03:06;;;;;;;23.38;5.35;;;;;;;4.60;81.58;100241.13;7387348;19;20014;-58
2022/04/09 00:05:35;;;;;;;19.75;4.25;;;;;;;4.60;82.18;100233.34;7385998;19;20019;-59
2022/04/09 00:08:04;;;;;;;20.65;4.63;;;;;;;4.42;82.07;100245.97;7387770;19;20037;-59
2022/04/09 00:10:32;;;;;;;23.25;5.13;;;;;;;4.58;81.85;100248.13;7387205;19;20495;-59
2022/04/09 00:13:04;;;;;;;22.95;5.25;;;;;;;4.62;82.08;100250.59;7387646;19;20015;-60
2022/04/09 00:15:33;;;;;;;21.45;4.95;;;;;;;4.41;81.68;100248.59;7385753;19;20019;-59
2022/04/09 00:18:02;;;;;;;19.20;4.07;;;;;;;4.47;81.43;100251.88;7385588;19;20025;-58
2022/04/09 00:20:31;;;;;;;18.60;4.20;;;;;;;4.56;82.49;100250.78;7386787;19;20006;-60
2022/04/09 00:23:00;;;;;;;12.80;3.78;;;;;;;4.56;82.64;100273.28;7384385;19;20660;-57
2022/04/09 00:25:29;;;;;;;15.18;3.70;;;;;;;4.52;82.96;100271.66;7379430;19;20085;-56
2022/04/09 00:27:58;;;;;;;20.98;4.22;;;;;;;4.47;82.62;100276.94;7384610;19;20014;-57
2022/04/09 00:30:29;;;;;;;18.83;4.20;;;;;;;4.44;82.75;100272.72;7386558;19;20491;-54
2022/04/09 00:32:59;;;;;;;16.50;3.83;;;;;;;4.53;83.41;100273.34;7387412;19;20015;-54
2022/04/09 00:35:28;;;;;;;23.50;4.78;;;;;;;4.46;82.65;100278.72;7385136;19;20352;-58
2022/04/09 00:37:56;;;;;;;17.35;4.47;;;;;;;4.35;82.75;100285.09;7385649;19;20021;-57
2022/04/09 00:40:28;;;;;;;19.55;4.38;;;;;;;4.44;83.67;100284.81;7385902;19;20037;-55
2022/04/09 00:42:57;;;;;;;20.42;4.25;;;;;;;4.54;82.46;100293.22;7386355;19;20018;-56
2022/04/09 00:45:25;;;;;;;17.75;4.07;;;;;;;4.48;82.14;100295.09;7384860;19;20022;-57
2022/04/09 00:47:57;;;;;;;17.92;3.72;;;;;;;4.56;84.39;100300.06;7386919;19;20466;-59
2022/04/09 00:50:26;;;;;;;15.27;3.53;;;;;;;4.50;84.79;100303.69;7384496;19;20026;-57
2022/04/09 00:53:00;;;;;;;17.23;3.88;;;;;;;4.27;83.89;100314.69;7387464;19;20126;-57
2022/04/09 00:58:15;;;;;;;20.20;4.07;;;;;;;4.29;85.27;100327.59;7385629;19;20019;-58
2022/04/09 01:00:46;;;;;;;16.73;4.43;;;;;;;4.33;84.65;100327.47;7386626;19;20305;-58
2022/04/09 01:03:21;;;;;;;15.55;4.25;;;;;;;4.30;84.53;100322.38;7385051;19;20460;-58
2022/04/09 01:05:51;;;;;;;19.88;5.45;;;;;;;4.28;85.04;100325.91;7386253;19;20014;-58
2022/04/09 01:08:20;;;;;;;20.15;4.45;;;;;;;4.35;85.28;100329.19;7386077;19;20502;-57
2022/04/09 01:10:52;;;;;;;13.60;4.68;;;;;;;4.23;85.52;100333.81;7384400;19;20372;-58
2022/04/09 01:13:24;;;;;;;19.63;3.92;;;;;;;4.15;85.26;100340.91;7385196;19;20010;-59
2022/04/09 01:15:53;;;;;;;18.35;3.42;;;;;;;4.07;85.14;100356.69;7389699;19;20026;-56
2022/04/09 01:18:25;;;;;;;15.77;3.42;;;;;;;4.16;84.66;100351.25;7391682;19;20011;-58
2022/04/09 01:21:00;;;;;;;16.80;3.72;;;;;;;4.12;85.17;100364.34;7391397;19;20455;-55
2022/04/09 01:23:33;;;;;;;16.02;3.92;;;;;;;4.08;84.59;100365.31;7391653;19;20045;-57
2022/04/09 01:26:07;;;;;;;19.45;4.57;;;;;;;4.14;85.66;100366.00;7391751;19;20018;-55
2022/04/09 01:28:40;;;;;;;21.23;4.53;;;;;;;4.06;84.46;100367.09;7391936;19;20025;-58
2022/04/09 01:31:09;;;;;;;20.67;4.93;;;;;;;4.05;84.43;100368.81;7393049;19;20049;-57
2022/04/09 01:33:39;;;;;;;16.42;4.15;;;;;;;4.13;85.60;100376.41;7390658;19;20352;-57
2022/04/09 01:36:08;;;;;;;19.40;3.88;;;;;;;4.10;84.91;100377.34;7390049;19;20479;-57
2022/04/09 01:38:40;;;;;;;16.83;4.85;;;;;;;4.03;84.14;100378.38;7383048;19;20018;-58
2022/04/09 01:41:09;;;;;;;17.45;4.38;;;;;;;4.21;84.27;100389.19;7391519;19;20333;-58
2022/04/09 01:43:44;;;;;;;17.30;4.65;;;;;;;4.11;83.69;100392.03;7391031;19;20013;-58
2022/04/09 01:46:13;;;;;;;18.77;4.03;;;;;;;4.06;83.92;100390.44;7390716;19;20087;-58
2022/04/09 01:48:43;;;;;;;14.95;4.10;;;;;;;3.99;84.18;100403.50;7390347;19;20011;-54
2022/04/09 01:51:12;;;;;;;18.58;4.90;;;;;;;3.98;84.66;100404.44;7391176;19;20026;-58
2022/04/09 01:53:43;;;;;;;17.20;3.97;;;;;;;4.09;84.13;100411.94;7391862;19;20459;-57
2022/04/09 01:56:12;;;;;;;15.15;4.03;;;;;;;4.19;84.25;100411.72;7392510;19;20015;-57
2022/04/09 01:58:44;;;;;;;14.35;3.88;;;;;;;4.13;82.86;100421.34;7388633;19;20003;-56
2022/04/09 02:01:19;;;;;;;13.48;3.13;;;;;;;4.12;82.76;100417.03;7391784;19;20044;-57
2022/04/09 02:03:48;;;;;;;;;;;;;;;4.11;81.91;100432.63;7391849;19;20014;-56
2022/04/09 02:06:17;;;;;;;12.40;2.60;;;;;;;4.20;82.23;100424.66;7390284;19;19918;-58
2022/04/09 02:08:48;;;;;;;18.52;3.50;;;;;;;4.28;81.53;100437.41;7390894;19;20034;-58
2022/04/09 02:11:17;;;;;;;16.05;3.20;;;;;;;4.33;81.90;100430.38;7389979;19;20157;-55
2022/04/09 02:13:47;;;;;;;12.23;3.28;;;;;;;4.23;81.19;100434.94;7389854;19;20018;-58
2022/04/09 02:16:16;;;;;;;17.20;3.20;;;;;;;4.28;81.50;100446.06;7390572;19;20022;-59
2022/04/09 02:18:45;;;;;;;14.23;3.15;;;;;;;4.04;81.33;100450.09;7389227;19;20394;-57
2022/04/09 02:21:14;;;;;;;18.25;4.03;;;;;;;4.04;82.17;100454.41;7390561;19;20014;-58
2022/04/09 02:23:49;;;;;;;15.68;3.50;;;;;;;4.20;82.94;100450.59;7390844;19;20356;-57
2022/04/09 02:26:19;;;;;;;13.98;3.30;;;;;;;4.22;82.54;100453.97;7387558;19;20026;-58
2022/04/09 02:28:49;;;;;;;19.35;3.25;;;;;;;4.22;82.65;100456.56;7389041;19;20014;-58
2022/04/09 02:31:22;;;;;;;16.83;3.25;;;;;;;4.13;82.79;100462.81;7388205;19;20463;-57
2022/04/09 02:33:53;;;;;;;12.57;2.67;;;;;;;4.22;82.80;100463.50;7389622;19;20007;-53
2022/04/09 02:36:24;;;;;;;12.60;3.08;;;;;;;4.25;83.30;100477.25;7389791;19;20029;-55
2022/04/09 02:38:55;;;;;;;13.65;3.55;;;;;;;4.24;83.46;100477.28;7386979;19;20026;-54
2022/04/09 02:41:24;;;;;;;13.50;2.55;;;;;;;4.26;82.46;100486.72;7388250;19;20022;-52
2022/04/09 02:43:58;;;;;;;11.98;2.30;;;;;;;4.11;82.13;100493.13;7387639;19;20408;-53
2022/04/09 02:46:27;;;;;;;10.43;2.20;;;;;;;4.18;81.63;100498.19;7388961;19;20110;-53
2022/04/09 02:48:59;;;;;;;12.73;2.33;;;;;;;4.15;81.59;100494.78;7388261;19;20014;-54
2022/04/09 02:51:28;;;;;;;9.80;2.38;;;;;;;4.21;81.45;100503.28;7388605;19;20011;-54
2022/04/09 02:54:00;;;;;;;8.57;1.95;;;;;;;4.24;81.67;100503.22;7387838;19;20029;-57
2022/04/09 02:56:30;;;;;;;8.95;2.17;;;;;;;4.27;82.28;100511.78;7387795;19;20364;-54
2022/04/09 02:58:59;;;;;;;11.77;2.50;;;;;;;4.20;81.58;100514.53;7387677;19;20014;-56
2022/04/09 03:01:29;;;;;;;6.70;1.70;;;;;;;4.20;82.14;100518.00;7390733;19;20011;-54
2022/04/09 03:03:58;;;;;;;8.75;2.03;;;;;;;4.14;82.89;100516.41;7387439;19;20049;-58
2022/04/09 03:06:27;;;;;;;13.98;2.40;;;;;;;4.23;82.81;100519.69;7388378;19;20444;-56
2022/04/09 03:08:56;;;;;;;9.35;1.75;;;;;;;4.18;82.68;100524.09;7389036;19;20018;-59
2022/04/09 03:11:27;;;;;;;8.68;2.20;;;;;;;4.19;82.50;100526.66;7387481;19;20018;-57
2022/04/09 03:13:56;;;;;;;15.25;3.15;;;;;;;4.10;82.43;100524.28;7387765;19;20038;-54
2022/04/09 03:16:25;;;;;;;9.52;1.95;;;;;;;4.24;82.94;100530.03;7387565;19;20372;-56
2022/04/09 03:18:57;;;;;;;7.30;2.03;;;;;;;4.24;83.04;100543.00;7386675;19;20010;-58
2022/04/09 03:21:26;;;;;;;9.32;2.13;;;;;;;4.03;83.79;100538.28;7387229;19;20119;-59
2022/04/09 03:23:55;;;;;;;9.30;2.08;;;;;;;4.02;83.95;100544.34;7387211;19;20321;-58
2022/04/09 03:26:27;;;;;;;9.05;2.00;;;;;;;3.98;84.59;100546.13;7387958;19;20082;-54
2022/04/09 03:28:59;;;;;;;12.02;2.92;;;;;;;3.88;84.99;100545.47;7387899;19;20014;-55
2022/04/09 03:31:28;;;;;;;11.07;2.13;;;;;;;3.85;84.97;100550.72;7387015;19;20011;-59
2022/04/09 03:33:59;;;;;;;11.07;2.63;;;;;;;3.90;85.75;100553.25;7387924;19;20115;-57
2022/04/09 03:36:28;;;;;;;11.00;2.85;;;;;;;3.85;85.32;100557.66;7387663;19;20015;-56
2022/04/09 03:38:57;;;;;;;9.80;2.60;;;;;;;4.03;85.47;100552.09;7385876;19;20042;-54
2022/04/09 03:41:30;;;;;;;12.02;2.58;;;;;;;3.97;84.68;100558.25;7390029;19;20032;-58
2022/04/09 03:44:03;;;;;;;11.05;2.22;;;;;;;3.98;84.25;100567.75;7387207;19;20022;-58
2022/04/09 03:46:35;;;;;;;12.80;2.80;;;;;;;4.11;84.82;100570.06;7387141;19;20085;-58
2022/04/09 03:49:10;;;;;;;15.55;3.28;;;;;;;3.95;84.01;100562.63;7385748;19;20487;-57
2022/04/09 03:51:41;;;;;;;13.23;2.20;;;;;;;4.11;85.19;100570.94;7386397;19;20017;-56
2022/04/09 03:54:11;;;;;;;15.93;2.63;;;;;;;4.05;84.90;100585.75;7386716;19;20108;-56
2022/04/09 03:56:43;;;;;;;8.30;1.92;;;;;;;4.14;84.87;100585.53;7386952;19;20014;-53
2022/04/09 03:59:14;;;;;;;11.85;2.15;;;;;;;4.01;85.23;100587.53;7384273;19;20014;-56
2022/04/09 04:01:47;;;;;;;11.27;2.60;;;;;;;3.90;85.17;100587.78;7390334;19;20010;-57
2022/04/09 04:04:17;;;;;;;8.32;2.55;;;;;;;3.91;85.61;100591.22;7386317;19;20487;-58
2022/04/09 04:06:48;;;;;;;12.93;2.85;;;;;;;3.95;85.33;100592.88;7388355;19;20018;-58
2022/04/09 04:09:17;;;;;;;11.77;2.35;;;;;;;4.05;85.51;100598.72;7388429;19;20117;-58
2022/04/09 04:11:52;;;;;;;13.35;2.97;;;;;;;4.12;85.37;100611.50;7387617;19;20069;-57
2022/04/09 04:14:21;;;;;;;12.25;2.42;;;;;;;4.02;85.12;100603.97;7386948;19;20041;-56
2022/04/09 04:16:50;;;;;;;9.63;1.83;;;;;;;4.09;85.36;100610.72;7387564;19;20106;-56
2022/04/09 04:19:20;;;;;;;16.88;3.03;;;;;;;4.05;85.55;100609.94;7388822;19;20023;-52
2022/04/09 04:21:51;;;;;;;14.77;2.70;;;;;;;3.98;84.96;100621.31;7387458;19;20407;-53
2022/04/09 04:24:23;;;;;;;15.00;3.50;;;;;;;3.96;85.96;100617.91;7385951;19;20015;-56
2022/04/09 04:26:55;;;;;;;10.77;2.80;;;;;;;4.03;85.33;100621.25;7387081;19;20368;-54
2022/04/09 04:29:26;;;;;;;13.40;2.70;;;;;;;4.08;85.80;100622.81;7387357;19;20384;-55
2022/04/09 04:31:55;;;;;;;14.50;2.88;;;;;;;3.96;85.71;100633.47;7387910;19;20023;-56
2022/04/09 04:34:25;;;;;;;11.95;2.58;;;;;;;3.91;85.67;100625.78;7386114;19;20014;-56
2022/04/09 04:36:54;;;;;;;10.57;2.70;;;;;;;4.11;85.82;100632.28;7387392;19;20521;-54
2022/04/09 04:39:24;;;;;;;10.75;2.42;;;;;;;4.14;85.39;100640.00;7384789;19;20030;-58
2022/04/09 04:41:57;;;;;;;16.23;2.60;;;;;;;4.10;85.33;100638.38;7386609;19;20066;-57
2022/04/09 04:44:27;;;;;;;15.05;3.03;;;;;;;4.13;85.03;100654.72;7386027;19;20349;-54
2022/04/09 04:46:59;;;;;;;5.82;2.13;;;;;;;4.19;85.16;100653.72;7386451;19;20011;-52
2022/04/09 04:49:29;;;;;;;10.80;2.58;;;;;;;4.24;83.91;100656.22;7385412;19;20011;-56
2022/04/09 04:52:06;;;;;;;11.48;2.15;;;;;;;4.22;83.35;100658.84;7393864;19;20015;-54
2022/04/09 04:54:36;;;;;;;10.32;2.30;;;;;;;4.22;83.54;100658.00;7392633;19;20104;-57
2022/04/09 04:57:08;;;;;;;13.77;2.42;;;;;;;4.14;82.87;100660.75;7394032;19;20018;-52
2022/04/09 04:59:38;;;;;;;11.77;2.80;;;;;;;4.23;83.50;100657.97;7392317;19;20018;-58
2022/04/09 05:02:07;;;;;;;12.18;1.98;;;;;;;4.15;81.64;100668.53;7397478;19;20310;-57
2022/04/09 05:04:36;;;;;;;9.95;1.90;;;;;;;4.20;80.34;100673.59;7391197;19;20024;-54
2022/04/09 05:07:08;;;;;;;8.65;1.73;;;;;;;4.22;80.20;100671.81;7392741;19;20018;-59
2022/04/09 05:09:37;;;;;;;10.90;1.80;;;;;;;4.24;81.07;100684.75;7393138;19;20039;-56
2022/04/09 05:12:10;;;;;;;7.20;1.80;;;;;;;4.30;80.64;100687.25;7392796;19;20003;-59
2022/04/09 05:14:44;;;;;;;10.45;2.47;;;;;;;4.29;80.35;100698.50;7393002;19;20113;-57
2022/04/09 05:17:17;;;;;;;;;;;;;;;4.25;81.06;100699.44;7394249;19;20010;-57
2022/04/09 05:19:45;;;;;;;10.38;2.13;;;;;;;4.26;81.42;100709.78;7390620;19;19918;-56
2022/04/09 05:22:16;;;;;;;17.23;7.10;;;;;;;4.27;81.49;100710.63;7393482;19;20007;-56
2022/04/09 05:25:06;;;;;;;7.03;2.30;;;;;;;4.22;81.82;100708.13;7391906;19;20026;-57
2022/04/09 05:27:39;;;;;;;8.70;1.92;;;;;;;4.18;82.53;100714.25;7392734;19;20071;-58
2022/04/09 05:30:13;;;;;;;11.90;2.08;;;;;;;4.22;82.68;100721.09;7393058;19;20090;-55
2022/04/09 05:32:46;;;;;;;13.70;2.40;;;;;;;4.11;83.95;100723.91;7392486;19;20049;-56
2022/04/09 05:35:17;;;;;;;9.07;2.20;;;;;;;4.08;84.58;100726.53;7390329;19;20313;-58
2022/04/09 05:37:50;;;;;;;6.40;1.80;;;;;;;4.07;84.69;100730.03;7394175;19;20352;-56
2022/04/09 05:40:24;;;;;;;9.18;2.20;;;;;;;4.08;85.02;100736.91;7389628;19;20018;-57
2022/04/09 05:42:58;;;;;;;10.57;2.17;;;;;;;4.08;85.68;100749.88;7392284;19;20082;-57
2022/04/09 05:45:28;;;;;;;11.88;1.88;;;;;;;3.99;85.89;100748.31;7390051;19;20018;-57
2022/04/09 05:48:47;;;;;;;11.10;2.47;;;;;;;4.14;85.86;100756.69;7399899;19;20038;-52
2022/04/09 05:51:16;;;;;;;10.25;2.03;;;;;;;4.15;86.32;100761.00;7392243;19;20024;-52
2022/04/09 05:53:49;;;;;;;15.20;3.70;;;;;;;4.07;86.20;100763.75;7387552;19;20380;-57
2022/04/09 05:56:19;;;;;;;12.25;2.33;;;;;;;4.17;86.09;100772.22;7392713;19;20078;-52
2022/04/09 05:58:51;;;;;;;9.05;2.45;;;;;;;4.13;85.47;100776.59;7393761;19;20100;-50
2022/04/09 06:01:20;;;;;;;12.13;2.78;;;;;;;4.27;85.56;100783.25;7396540;19;20189;-54
2022/04/09 06:03:49;;;;;;;14.40;3.08;;;;;;;4.23;85.83;100786.81;7397088;19;20014;-52
2022/04/09 06:06:18;;;;;;;9.88;2.30;;;;;;;4.26;85.54;100782.41;7392952;19;20448;-55
2022/04/09 06:08:53;;;;;;;9.43;2.13;;;;;;;4.33;84.73;100790.94;7397947;19;20030;-57
2022/04/09 06:11:32;;;;;;;8.98;2.35;;;;;;;4.35;84.83;100798.69;7392426;19;20042;-58
2022/04/09 06:14:10;;;;;;;10.48;2.50;;;;;;;4.43;84.71;100807.19;7392006;19;20420;-55
2022/04/09 06:16:40;;;;;;;13.67;3.17;;;;;;;4.51;84.03;100810.47;7392975;19;20106;-52
2022/04/09 06:19:11;;;;;;;12.63;2.40;;;;;;;4.63;83.62;100822.38;7391829;19;20015;-52
2022/04/09 06:21:40;;;;;;;10.25;2.35;;;;;;;4.68;82.73;100815.34;7393051;19;20073;-56
2022/04/09 06:24:11;;;;;;;10.98;2.90;;;;;;;4.78;82.17;100816.00;7391237;19;20014;-56
2022/04/09 06:26:42;;;;;;;10.70;2.38;;;;;;;4.75;83.21;100814.31;7391593;19;20011;-56
2022/04/09 06:29:13;;;;;;;10.60;2.13;;;;;;;4.63;81.33;100822.38;7390011;19;20014;-57
2022/04/09 06:31:47;;;;;;;7.78;1.73;;;;;;;4.66;80.75;100820.56;7393088;19;20352;-56
2022/04/09 06:34:16;;;;;;;10.63;2.28;;;;;;;4.67;81.44;100824.88;7390028;19;20638;-58
2022/04/09 06:36:45;;;;;;;10.43;2.00;;;;;;;4.75;80.94;100827.31;7391037;19;20022;-58
2022/04/09 06:39:16;;;;;;;10.85;2.15;;;;;;;4.86;80.14;100840.06;7389289;19;20614;-58
2022/04/09 06:41:48;;;;;;;7.72;2.25;;;;;;;4.87;80.36;100833.97;7391796;19;20022;-60
2022/04/09 06:44:25;;;;;;;9.93;1.90;;;;;;;4.94;79.82;100847.69;7390773;19;20014;-58
2022/04/09 06:46:59;;;;;;;8.30;2.00;;;;;;;5.10;80.10;100849.09;7390137;19;20074;-57
2022/04/09 06:49:33;;;;;;;9.00;1.70;;;;;;;5.06;79.22;100857.84;7389134;19;20034;-56
2022/04/09 06:52:09;;;;;;;10.60;2.47;;;;;;;5.18;80.11;100864.53;7389801;19;20026;-56
2022/04/09 06:54:55;;;;;;;7.30;1.75;;;;;;;4.94;80.70;100860.69;7388311;19;20014;-55
2022/04/09 06:57:25;;;;;;;10.48;2.42;;;;;;;5.13;81.47;100859.44;7389491;19;20033;-59
2022/04/09 06:59:58;;;;;;;9.77;2.28;;;;;;;5.25;80.95;100867.84;7387156;19;20027;-59
2022/04/09 07:02:28;;;;;;;10.68;2.58;;;;;;;5.18;80.44;100867.13;7394188;19;20357;-58
2022/04/09 07:04:57;;;;;;;10.85;2.20;;;;;;;5.23;81.12;100869.59;7389514;19;20058;-55
2022/04/09 07:07:27;;;;;;;12.45;2.75;;;;;;;5.23;80.79;100870.47;7393038;19;20007;-58
2022/04/09 07:10:05;;;;;;;9.98;2.63;;;;;;;5.31;81.38;100873.75;7391205;19;20023;-58
2022/04/09 07:12:34;;;;;;;12.82;2.65;;;;;;;5.38;81.92;100869.28;7389324;19;20034;-56
2022/04/09 07:15:06;;;;;;;11.90;3.08;;;;;;;5.33;82.19;100869.38;7388912;19;20021;-58
2022/04/09 07:17:35;;;;;;;16.00;3.30;;;;;;;5.26;82.11;100877.34;7390830;19;20014;-59
2022/04/09 07:20:07;;;;;;;16.40;3.50;;;;;;;5.35;81.87;100875.41;7388934;19;20019;-54
2022/04/09 07:22:37;;;;;;;15.25;3.28;;;;;;;5.48;81.33;100881.19;7390203;19;20556;-58
2022/04/09 07:25:08;;;;;;;11.57;2.50;;;;;;;5.53;81.05;100886.25;7389955;19;20038;-56
2022/04/09 07:27:38;;;;;;;11.75;3.35;;;;;;;5.58;80.56;100893.97;7390488;19;20122;-55
2022/04/09 07:30:12;;;;;;;15.68;2.95;;;;;;;5.80;80.25;100889.13;7389579;19;20522;-57
2022/04/09 07:32:42;;;;;;;13.85;3.05;;;;;;;6.01;78.53;100885.22;7391719;19;20026;-56
2022/04/09 07:35:12;;;;;;;15.93;3.15;;;;;;;6.16;77.49;100905.66;7389940;19;20023;-57
2022/04/09 07:37:43;;;;;;;13.52;2.55;;;;;;;5.96;78.45;100910.44;7390893;19;20014;-57
2022/04/09 07:40:13;;;;;;;10.32;2.78;;;;;;;5.99;80.06;100900.84;7388449;19;20049;-58
2022/04/09 07:42:43;;;;;;;8.32;1.80;;;;;;;5.78;79.60;100912.56;7387123;19;20010;-58
2022/04/09 07:45:16;;;;;;;5.70;1.60;;;;;;;5.84;79.49;100919.38;7388883;19;20030;-57
2022/04/09 07:47:45;;;;;;;7.20;1.63;;;;;;;5.84;78.18;100919.38;7390059;19;20015;-55
2022/04/09 07:50:15;;;;;;;6.97;1.65;;;;;;;5.66;76.80;100921.50;7389686;19;20732;-55
2022/04/09 07:52:45;;;;;;;6.50;1.65;;;;;;;5.51;78.86;100929.66;7389616;19;20026;-56
2022/04/09 07:55:16;;;;;;;6.10;1.80;;;;;;;5.41;77.82;100928.97;7387684;19;20082;-56
2022/04/09 07:57:45;;;;;;;5.13;1.05;;;;;;;5.44;78.94;100941.91;7389823;19;20082;-57
2022/04/09 08:00:18;;;;;;;11.10;1.90;;;;;;;5.42;79.16;100945.44;7391008;19;20336;-56
2022/04/09 08:02:47;;;;;;;6.35;1.52;;;;;;;5.60;79.54;100937.25;7390260;19;20015;-56
2022/04/09 08:05:18;;;;;;;7.50;1.90;;;;;;;5.65;78.73;100943.19;7388415;19;20011;-58
2022/04/09 08:07:48;;;;;;;7.40;1.90;;;;;;;5.72;78.55;100947.38;7390151;19;20804;-56
2022/04/09 08:10:17;;;;;;;6.95;1.70;;;;;;;5.88;78.03;100950.47;7388150;19;20048;-56
2022/04/09 08:12:48;;;;;;;9.05;1.58;;;;;;;6.04;79.08;100950.16;7389676;19;20014;-57
2022/04/09 08:15:20;;;;;;;7.50;1.52;;;;;;;6.18;77.59;100953.28;7386347;19;20025;-58
2022/04/09 08:17:49;;;;;;;9.23;2.13;;;;;;;6.26;78.21;100954.84;7388839;19;20019;-55
2022/04/09 08:20:21;;;;;;;6.10;1.42;;;;;;;6.51;76.34;100950.75;7387018;19;20018;-56
2022/04/09 08:22:50;;;;;;;6.57;1.45;;;;;;;6.62;75.26;100955.69;7344441;19;20018;-57
2022/04/09 08:25:20;;;;;;;7.20;1.42;;;;;;;6.44;74.38;100961.38;7388070;19;20023;-58
2022/04/09 08:27:51;;;;;;;6.95;2.00;;;;;;;6.52;75.42;100954.19;7396351;19;20014;-53
2022/04/09 08:30:24;;;;;;;7.45;1.48;;;;;;;6.50;73.86;100958.59;7395576;19;20052;-56
2022/04/09 08:32:54;;;;;;;9.18;2.75;;;;;;;6.58;72.89;100949.69;7396267;19;20025;-56
2022/04/09 08:35:23;;;;;;;5.90;1.60;;;;;;;6.88;72.14;100957.63;7394101;19;20107;-56
2022/04/09 08:37:56;;;;;;;5.05;0.90;;;;;;;7.19;69.30;100959.41;7395759;19;20388;-55
2022/04/09 08:40:26;;;;;;;8.18;1.35;;;;;;;7.22;66.35;100955.81;7393758;19;20098;-58
2022/04/09 08:42:58;;;;;;;8.02;1.20;;;;;;;7.49;65.88;100964.59;7394932;19;20014;-57
2022/04/09 08:45:29;;;;;;;10.27;1.85;;;;;;;7.37;66.47;100971.03;7393649;19;20015;-59
2022/04/09 08:47:58;;;;;;;6.50;1.65;;;;;;;6.98;69.74;100988.63;7395398;19;20025;-60
2022/04/09 08:50:28;;;;;;;8.75;1.60;;;;;;;6.86;71.67;100989.78;7394965;19;20348;-59
2022/04/09 08:52:57;;;;;;;8.20;1.40;;;;;;;6.75;72.76;100990.09;7395034;19;20011;-59
2022/04/09 08:55:26;;;;;;;12.32;1.60;;;;;;;6.72;70.85;100993.63;7392367;19;20022;-57
2022/04/09 08:57:55;;;;;;;4.95;1.40;;;;;;;6.66;72.41;100991.19;7394558;19;20014;-58
2022/04/09 09:00:24;;;;;;;8.38;1.70;;;;;;;6.80;72.39;100993.41;7393160;19;20025;-56
2022/04/09 09:02:58;;;;;;;11.80;1.92;;;;;;;6.88;70.69;100988.88;7393570;19;20434;-59
2022/04/09 09:05:34;;;;;;;7.68;2.10;;;;;;;6.92;70.22;100997.47;7396139;19;20018;-55
2022/04/09 09:08:03;;;;;;;12.90;2.08;;;;;;;7.12;68.55;100993.47;7399066;19;20022;-54
2022/04/09 09:10:33;;;;;;;10.25;1.60;;;;;;;7.31;66.68;101002.50;7394151;19;20014;-57
2022/04/09 09:13:05;;;;;;;8.23;2.08;;;;;;;7.56;67.39;101005.25;7394471;19;20011;-58
2022/04/09 09:15:47;;;;;;;13.23;2.00;;;;;;;7.59;65.69;101002.56;7392001;19;20018;-58
2022/04/09 09:18:27;;;;;;;10.05;1.30;;;;;;;7.78;65.26;101002.03;7399172;19;20017;-57
2022/04/09 09:20:58;;;;;;;6.53;1.73;;;;;;;8.01;64.65;101008.28;7392013;19;20015;-56
2022/04/09 09:23:28;;;;;;;8.65;2.10;;;;;;;7.87;65.66;101013.94;7394800;19;20024;-56
2022/04/09 09:25:59;;;;;;;6.05;1.63;;;;;;;7.73;63.56;101011.75;7394570;19;20133;-64
2022/04/09 09:28:29;;;;;;;11.15;1.80;;;;;;;7.71;64.59;101005.69;7394407;19;20022;-58
2022/04/09 09:30:58;;;;;;;13.77;3.25;;;;;;;7.47;66.87;101012.50;7392853;19;20018;-56
2022/04/09 09:33:30;;;;;;;19.10;10.40;;;;;;;7.74;66.86;101013.47;7398358;19;20018;-57
2022/04/09 09:36:02;;;;;;;12.63;1.90;;;;;;;7.79;65.63;101011.56;7392693;19;20059;-58
2022/04/09 09:38:33;;;;;;;10.93;1.90;;;;;;;7.42;66.17;101015.22;7393685;19;20029;-59
2022/04/09 09:41:03;;;;;;;7.22;1.90;;;;;;;7.22;67.89;101019.25;7390796;19;20019;-58
2022/04/09 09:43:32;;;;;;;6.35;2.08;;;;;;;7.35;68.10;101019.75;7393623;19;20014;-58
2022/04/09 09:46:01;;;;;;;10.52;2.13;;;;;;;7.53;68.28;101012.31;7394256;19;20607;-59
2022/04/09 09:48:35;;;;;;;8.43;1.85;;;;;;;7.47;67.74;101026.38;7389833;19;20015;-58
2022/04/09 09:51:04;;;;;;;7.88;1.70;;;;;;;7.60;68.30;101017.31;7387491;19;20022;-55
2022/04/09 09:53:34;;;;;;;11.98;1.50;;;;;;;7.12;67.41;101020.41;7396571;19;20082;-51
2022/04/09 09:56:04;;;;;;;145.63;10.07;;;;;;;6.83;71.86;101034.16;7394284;19;20014;-55
2022/04/09 09:58:34;;;;;;;6.93;2.28;;;;;;;6.03;83.43;101057.69;7394357;19;20027;-51
2022/04/09 10:01:03;;;;;;;10.80;2.30;;;;;;;5.52;90.19;101067.34;7392999;19;20015;-53
2022/04/09 10:03:36;;;;;;;12.07;2.58;;;;;;;4.86;94.41;101073.75;7388782;19;20471;-58
2022/04/09 10:06:06;;;;;;;9.98;2.38;;;;;;;4.07;99.25;101108.63;7389486;19;20030;-55
2022/04/09 10:08:35;;;;;;;9.55;2.55;;;;;;;3.89;100.00;101101.91;7393113;19;20018;-58
2022/04/09 10:11:04;;;;;;;8.32;2.08;;;;;;;3.93;100.00;101107.94;7396270;19;20339;-59
2022/04/09 10:13:39;;;;;;;4.40;1.90;;;;;;;3.90;100.00;101100.19;7400104;19;20021;-55
2022/04/09 10:16:12;;;;;;;6.65;1.73;;;;;;;3.84;100.00;101101.13;7394474;19;20498;-63
2022/04/09 10:18:44;;;;;;;5.97;1.65;;;;;;;3.91;100.00;101104.47;7395030;19;20022;-57
2022/04/09 10:21:13;;;;;;;6.80;1.95;;;;;;;4.03;100.00;101104.34;7391611;19;20025;-58
2022/04/09 10:23:43;;;;;;;5.22;1.80;;;;;;;4.11;100.00;101105.13;7393751;19;20026;-55
2022/04/09 10:26:13;;;;;;;4.30;1.80;;;;;;;4.07;100.00;101102.56;7394216;19;20025;-57
2022/04/09 10:28:43;;;;;;;5.63;1.75;;;;;;;4.13;100.00;101108.53;7393287;19;20043;-57
2022/04/09 10:31:34;;;;;;;8.57;2.08;;;;;;;4.19;100.00;101115.38;7393233;19;20129;-56
2022/04/09 10:34:07;;;;;;;6.68;2.05;;;;;;;4.41;100.00;101126.31;7396222;19;20022;-52
2022/04/09 10:37:03;;;;;;;6.75;1.80;;;;;;;4.47;100.00;101115.88;7394206;19;20018;-56
2022/04/09 10:39:45;;;;;;;9.60;1.95;;;;;;;4.70;100.00;101116.38;7393489;19;20011;-55
2022/04/09 10:42:49;;;;;;;4.97;1.75;;;;;;;4.75;100.00;101105.06;7391757;19;20082;-55
2022/04/09 10:45:18;;;;;;;4.53;2.00;;;;;;;5.24;100.00;101100.78;7392200;19;20034;-56
2022/04/09 10:48:10;;;;;;;4.03;1.20;;;;;;;5.45;97.70;101091.75;7391365;19;20010;-51
2022/04/09 10:51:01;;;;;;;5.75;1.50;;;;;;;5.30;94.57;101094.63;7395586;19;20022;-55
2022/04/09 10:53:31;;;;;;;4.65;1.00;;;;;;;5.00;90.59;101096.88;7387836;19;20015;-58
2022/04/09 10:56:20;;;;;;;4.20;1.00;;;;;;;4.88;93.33;101105.72;7387847;19;20079;-55
2022/04/09 10:59:03;;;;;;;6.78;1.50;;;;;;;4.89;93.28;101120.44;7393156;19;20025;-56
2022/04/09 11:01:48;;;;;;;;;;;;;;;4.94;94.69;101117.75;7393757;19;20025;-56
2022/04/09 11:04:42;;;;;;;4.90;1.63;;;;;;;5.49;97.12;101122.00;7391927;19;19943;-56
2022/04/09 11:07:18;;;;;;;7.30;1.60;;;;;;;5.84;92.60;101117.00;7391957;19;20014;-51
2022/04/09 11:09:51;;;;;;;7.25;1.90;;;;;;;5.66;93.22;101121.69;7392232;19;20014;-51
2022/04/09 11:12:21;;;;;;;6.40;2.00;;;;;;;5.60;94.45;101133.94;7391766;19;20116;-55
2022/04/09 11:14:54;;;;;;;7.45;2.45;;;;;;;5.53;94.10;101134.06;7390704;19;20018;-58
2022/04/09 11:17:27;;;;;;;;;;;;;;;5.46;92.99;101150.66;7392460;19;20014;-56
2022/04/09 11:19:58;;;;;;;4.72;1.48;;;;;;;5.14;89.12;101154.66;7391270;19;19923;-55
2022/04/09 11:22:38;;;;;;;6.70;1.65;;;;;;;4.83;97.12;101162.94;7390408;19;20024;-56
2022/04/09 11:25:09;;;;;;;6.13;2.10;;;;;;;4.77;98.84;101175.13;7390856;19;20014;-56
2022/04/09 11:27:38;;;;;;;7.65;2.60;;;;;;;4.67;100.00;101166.59;7392665;19;20074;-54
2022/04/09 11:30:09;;;;;;;7.60;2.25;;;;;;;4.66;100.00;101165.75;7391108;19;20020;-57
2022/04/09 11:32:38;;;;;;;6.47;2.67;;;;;;;4.63;100.00;101165.81;7393195;19;20033;-56
2022/04/09 11:35:11;;;;;;;8.15;2.47;;;;;;;4.56;100.00;101163.34;7390022;19;20302;-55
2022/04/09 11:37:48;;;;;;;9.68;4.57;;;;;;;4.65;100.00;101165.78;7396013;19;20097;-53
2022/04/09 11:40:18;;;;;;;7.65;2.25;;;;;;;4.78;100.00;101163.88;7392571;19;20024;-56
2022/04/09 11:42:48;;;;;;;4.55;2.00;;;;;;;4.80;100.00;101159.50;7393049;19;20014;-51
2022/04/09 11:45:21;;;;;;;5.15;1.75;;;;;;;4.99;100.00;101154.91;7391310;19;20023;-55
2022/04/09 11:47:51;;;;;;;8.65;2.17;;;;;;;5.12;98.52;101163.38;7394640;19;20034;-57
2022/04/09 11:50:20;;;;;;;9.85;2.50;;;;;;;5.51;99.08;101154.00;7392165;19;20512;-55
2022/04/09 11:52:52;;;;;;;8.73;1.67;;;;;;;5.72;94.95;101144.97;7392070;19;20018;-56